sensor_id;sensor_type;location;lat;lon;timestamp;temperature;humidity
22192;DHT22;11261;52.456;10.850;2022-10-03T00:00:31;10.70;99.90
22192;DHT22;11261;52.456;10.850;2022-10-03T00:03:29;10.70;99.90
22192;DHT22;11261;52.456;10.850;2022-10-03T00:06:06;10.70;99.90
22192;DHT22;11261;52.456;10.850;2022-10-03T00:09:05;10.60;99.90
22192;DHT22;11261;52.456;10.850;2022-10-03T00:11:43;10.60;99.90
22192;DHT22;11261;52.456;10.850;2022-10-03T00:14:20;10.60;99.90
22192;DHT22;11261;52.456;10.850;2022-10-03T00:16:59;10.70;99.90
22192;DHT22;11261;52.456;10.850;2022-10-03T00:19:37;10.70;99.90
22192;DHT22;11261;52.456;10.850;2022-10-03T00:22:18;10.70;99.90
22192;DHT22;11261;52.456;10.850;2022-10-03T00:25:00;10.70;99.90
22192;DHT22;11261;52.456;10.850;2022-10-03T00:27:34;10.70;99.90
22192;DHT22;11261;52.456;10.850;2022-10-03T00:30:12;10.60;99.90
22192;DHT22;11261;52.456;10.850;2022-10-03T00:33:03;10.60;99.90
22192;DHT22;11261;52.456;10.850;2022-10-03T00:35:44;10.70;99.90
22192;DHT22;11261;52.456;10.850;2022-10-03T00:38:35;10.70;99.90
22192;DHT22;11261;52.456;10.850;2022-10-03T00:41:17;10.70;99.90
22192;DHT22;11261;52.456;10.850;2022-10-03T00:44:31;10.80;99.90
22192;DHT22;11261;52.456;10.850;2022-10-03T00:47:27;10.80;99.90
22192;DHT22;11261;52.456;10.850;2022-10-03T00:50:23;10.80;99.90
22192;DHT22;11261;52.456;10.850;2022-10-03T00:53:10;10.90;99.90
22192;DHT22;11261;52.456;10.850;2022-10-03T00:56:00;10.90;99.90
22192;DHT22;11261;52.456;10.850;2022-10-03T00:58:48;11.00;99.90
22192;DHT22;11261;52.456;10.850;2022-10-03T01:01:28;11.00;99.90
22192;DHT22;11261;52.456;10.850;2022-10-03T01:04:13;11.10;99.90
22192;DHT22;11261;52.456;10.850;2022-10-03T01:06:46;11.00;99.90
22192;DHT22;11261;52.456;10.850;2022-10-03T01:09:36;11.00;99.90
22192;DHT22;11261;52.456;10.850;2022-10-03T01:12:25;10.90;99.90
22192;DHT22;11261;52.456;10.850;2022-10-03T01:15:12;10.90;99.90
22192;DHT22;11261;52.456;10.850;2022-10-03T01:17:53;10.90;99.90
22192;DHT22;11261;52.456;10.850;2022-10-03T01:20:32;10.80;99.90
22192;DHT22;11261;52.456;10.850;2022-10-03T01:23:32;10.80;99.90
22192;DHT22;11261;52.456;10.850;2022-10-03T01:29:00;10.90;99.90
22192;DHT22;11261;52.456;10.850;2022-10-03T01:31:52;10.80;99.90
22192;DHT22;11261;52.456;10.850;2022-10-03T01:34:27;10.80;99.90
22192;DHT22;11261;52.456;10.850;2022-10-03T01:37:04;10.80;99.90
22192;DHT22;11261;52.456;10.850;2022-10-03T01:39:40;10.80;99.90
22192;DHT22;11261;52.456;10.850;2022-10-03T01:42:14;10.80;99.90
22192;DHT22;11261;52.456;10.850;2022-10-03T01:45:04;10.80;99.90
22192;DHT22;11261;52.456;10.850;2022-10-03T01:47:41;10.80;99.90
22192;DHT22;11261;52.456;10.850;2022-10-03T01:50:22;10.80;99.90
22192;DHT22;11261;52.456;10.850;2022-10-03T01:52:56;10.80;99.90
22192;DHT22;11261;52.456;10.850;2022-10-03T01:55:36;10.80;99.90
22192;DHT22;11261;52.456;10.850;2022-10-03T01:58:08;10.90;99.90
22192;DHT22;11261;52.456;10.850;2022-10-03T02:00:44;10.80;99.90
22192;DHT22;11261;52.456;10.850;2022-10-03T02:03:20;10.80;99.90
22192;DHT22;11261;52.456;10.850;2022-10-03T02:05:58;10.80;99.90
22192;DHT22;11261;52.456;10.850;2022-10-03T02:08:40;10.80;99.90
22192;DHT22;11261;52.456;10.850;2022-10-03T02:11:23;10.80;99.90
22192;DHT22;11261;52.456;10.850;2022-10-03T02:13:58;10.80;99.90
22192;DHT22;11261;52.456;10.850;2022-10-03T02:16:39;10.70;99.90
22192;DHT22;11261;52.456;10.850;2022-10-03T02:19:20;10.80;99.90
22192;DHT22;11261;52.456;10.850;2022-10-03T02:21:51;10.80;99.90
22192;DHT22;11261;52.456;10.850;2022-10-03T02:24:37;10.70;99.90
22192;DHT22;11261;52.456;10.850;2022-10-03T02:27:33;10.70;99.90
22192;DHT22;11261;52.456;10.850;2022-10-03T02:30:14;10.70;99.90
22192;DHT22;11261;52.456;10.850;2022-10-03T02:33:24;10.60;99.90
22192;DHT22;11261;52.456;10.850;2022-10-03T02:36:42;10.50;99.90
22192;DHT22;11261;52.456;10.850;2022-10-03T02:39:38;10.50;99.90
22192;DHT22;11261;52.456;10.850;2022-10-03T02:42:36;10.50;99.90
22192;DHT22;11261;52.456;10.850;2022-10-03T02:45:29;10.50;99.90
22192;DHT22;11261;52.456;10.850;2022-10-03T02:52:04;10.50;99.90
22192;DHT22;11261;52.456;10.850;2022-10-03T02:54:56;10.50;99.90
22192;DHT22;11261;52.456;10.850;2022-10-03T02:58:01;10.50;99.90
22192;DHT22;11261;52.456;10.850;2022-10-03T03:00:43;10.50;99.90
22192;DHT22;11261;52.456;10.850;2022-10-03T03:03:32;10.50;99.90
22192;DHT22;11261;52.456;10.850;2022-10-03T03:06:34;10.50;99.90
22192;DHT22;11261;52.456;10.850;2022-10-03T03:09:32;10.50;99.90
22192;DHT22;11261;52.456;10.850;2022-10-03T03:18:11;10.40;99.90
22192;DHT22;11261;52.456;10.850;2022-10-03T03:20:53;10.50;99.90
22192;DHT22;11261;52.456;10.850;2022-10-03T03:23:39;10.40;99.90
22192;DHT22;11261;52.456;10.850;2022-10-03T03:26:30;10.50;99.90
22192;DHT22;11261;52.456;10.850;2022-10-03T03:29:10;10.40;99.90
22192;DHT22;11261;52.456;10.850;2022-10-03T03:31:49;10.40;99.90
22192;DHT22;11261;52.456;10.850;2022-10-03T03:34:25;10.40;99.90
22192;DHT22;11261;52.456;10.850;2022-10-03T03:37:01;10.50;99.90
22192;DHT22;11261;52.456;10.850;2022-10-03T03:39:48;10.50;99.90
22192;DHT22;11261;52.456;10.850;2022-10-03T03:42:36;10.40;99.90
22192;DHT22;11261;52.456;10.850;2022-10-03T03:45:24;10.40;99.90
22192;DHT22;11261;52.456;10.850;2022-10-03T03:48:09;10.30;99.90
22192;DHT22;11261;52.456;10.850;2022-10-03T03:50:45;10.40;99.90
22192;DHT22;11261;52.456;10.850;2022-10-03T03:56:27;10.30;99.90
22192;DHT22;11261;52.456;10.850;2022-10-03T03:59:12;10.30;99.90
22192;DHT22;11261;52.456;10.850;2022-10-03T04:02:01;10.30;99.90
22192;DHT22;11261;52.456;10.850;2022-10-03T04:04:42;10.30;99.90
22192;DHT22;11261;52.456;10.850;2022-10-03T04:07:21;10.20;99.90
22192;DHT22;11261;52.456;10.850;2022-10-03T04:10:06;10.20;99.90
22192;DHT22;11261;52.456;10.850;2022-10-03T04:13:04;10.10;99.90
22192;DHT22;11261;52.456;10.850;2022-10-03T04:15:50;10.10;99.90
22192;DHT22;11261;52.456;10.850;2022-10-03T04:18:34;10.10;99.90
22192;DHT22;11261;52.456;10.850;2022-10-03T04:22:03;10.10;99.90
22192;DHT22;11261;52.456;10.850;2022-10-03T04:25:02;10.10;99.90
22192;DHT22;11261;52.456;10.850;2022-10-03T04:27:50;10.10;99.90
22192;DHT22;11261;52.456;10.850;2022-10-03T04:30:27;10.20;99.90
22192;DHT22;11261;52.456;10.850;2022-10-03T04:33:12;10.20;99.90
22192;DHT22;11261;52.456;10.850;2022-10-03T04:36:08;10.10;99.90
22192;DHT22;11261;52.456;10.850;2022-10-03T04:38:49;10.10;99.90
22192;DHT22;11261;52.456;10.850;2022-10-03T04:41:26;10.10;99.90
22192;DHT22;11261;52.456;10.850;2022-10-03T04:44:03;10.10;99.90
22192;DHT22;11261;52.456;10.850;2022-10-03T04:46:42;10.10;99.90
22192;DHT22;11261;52.456;10.850;2022-10-03T04:49:21;10.20;99.90
22192;DHT22;11261;52.456;10.850;2022-10-03T04:51:57;10.20;99.90
22192;DHT22;11261;52.456;10.850;2022-10-03T04:54:39;10.30;99.90
22192;DHT22;11261;52.456;10.850;2022-10-03T04:57:22;10.30;99.90
22192;DHT22;11261;52.456;10.850;2022-10-03T05:00:03;10.30;99.90
22192;DHT22;11261;52.456;10.850;2022-10-03T05:02:42;10.30;99.90
22192;DHT22;11261;52.456;10.850;2022-10-03T05:08:31;10.20;99.90
22192;DHT22;11261;52.456;10.850;2022-10-03T05:11:17;10.30;99.90
22192;DHT22;11261;52.456;10.850;2022-10-03T05:13:57;10.30;99.90
22192;DHT22;11261;52.456;10.850;2022-10-03T05:16:36;10.40;99.90
22192;DHT22;11261;52.456;10.850;2022-10-03T05:19:23;10.30;99.90
22192;DHT22;11261;52.456;10.850;2022-10-03T05:22:00;10.40;99.90
22192;DHT22;11261;52.456;10.850;2022-10-03T05:24:35;10.40;99.90
22192;DHT22;11261;52.456;10.850;2022-10-03T05:27:13;10.40;99.90
22192;DHT22;11261;52.456;10.850;2022-10-03T05:29:52;10.40;99.90
22192;DHT22;11261;52.456;10.850;2022-10-03T05:32:29;10.40;99.90
22192;DHT22;11261;52.456;10.850;2022-10-03T05:38:12;10.40;99.90
22192;DHT22;11261;52.456;10.850;2022-10-03T05:40:59;10.40;99.90
22192;DHT22;11261;52.456;10.850;2022-10-03T05:43:42;10.30;99.90
22192;DHT22;11261;52.456;10.850;2022-10-03T05:46:19;10.40;99.90
22192;DHT22;11261;52.456;10.850;2022-10-03T05:48:57;10.30;99.90
22192;DHT22;11261;52.456;10.850;2022-10-03T05:51:43;10.30;99.90
22192;DHT22;11261;52.456;10.850;2022-10-03T05:54:44;10.50;99.90
22192;DHT22;11261;52.456;10.850;2022-10-03T05:57:36;10.30;99.90
22192;DHT22;11261;52.456;10.850;2022-10-03T06:00:18;10.30;99.90
22192;DHT22;11261;52.456;10.850;2022-10-03T06:05:57;10.40;99.90
22192;DHT22;11261;52.456;10.850;2022-10-03T06:11:58;10.40;99.90
22192;DHT22;11261;52.456;10.850;2022-10-03T06:17:51;10.40;99.90
22192;DHT22;11261;52.456;10.850;2022-10-03T06:23:52;10.50;99.90
22192;DHT22;11261;52.456;10.850;2022-10-03T06:26:56;10.60;99.90
22192;DHT22;11261;52.456;10.850;2022-10-03T06:32:54;10.60;99.90
22192;DHT22;11261;52.456;10.850;2022-10-03T06:36:01;10.70;99.90
22192;DHT22;11261;52.456;10.850;2022-10-03T06:48:53;10.90;99.90
22192;DHT22;11261;52.456;10.850;2022-10-03T06:51:45;11.00;99.90
22192;DHT22;11261;52.456;10.850;2022-10-03T06:54:47;11.00;99.90
22192;DHT22;11261;52.456;10.850;2022-10-03T06:57:38;11.10;99.90
22192;DHT22;11261;52.456;10.850;2022-10-03T07:00:15;11.30;99.90
22192;DHT22;11261;52.456;10.850;2022-10-03T07:03:01;11.40;99.90
22192;DHT22;11261;52.456;10.850;2022-10-03T07:09:00;11.70;99.90
22192;DHT22;11261;52.456;10.850;2022-10-03T07:11:45;11.70;99.90
22192;DHT22;11261;52.456;10.850;2022-10-03T07:14:48;11.90;99.90
22192;DHT22;11261;52.456;10.850;2022-10-03T07:17:39;12.20;99.90
22192;DHT22;11261;52.456;10.850;2022-10-03T07:20:43;12.70;99.90
22192;DHT22;11261;52.456;10.850;2022-10-03T07:23:37;12.50;99.90
22192;DHT22;11261;52.456;10.850;2022-10-03T07:26:37;13.40;99.90
22192;DHT22;11261;52.456;10.850;2022-10-03T07:29:17;13.20;99.90
22192;DHT22;11261;52.456;10.850;2022-10-03T07:32:10;13.30;99.90
22192;DHT22;11261;52.456;10.850;2022-10-03T07:35:07;13.50;99.90
22192;DHT22;11261;52.456;10.850;2022-10-03T07:37:54;13.90;99.90
22192;DHT22;11261;52.456;10.850;2022-10-03T07:41:19;14.10;99.90
22192;DHT22;11261;52.456;10.850;2022-10-03T07:47:09;15.00;99.90
22192;DHT22;11261;52.456;10.850;2022-10-03T07:50:09;15.30;99.90
22192;DHT22;11261;52.456;10.850;2022-10-03T07:52:58;15.20;99.90
22192;DHT22;11261;52.456;10.850;2022-10-03T07:55:41;15.60;99.90
22192;DHT22;11261;52.456;10.850;2022-10-03T07:58:29;15.30;99.90
22192;DHT22;11261;52.456;10.850;2022-10-03T08:01:28;15.00;99.90
22192;DHT22;11261;52.456;10.850;2022-10-03T08:04:32;15.90;99.90
22192;DHT22;11261;52.456;10.850;2022-10-03T08:07:29;16.80;99.90
22192;DHT22;11261;52.456;10.850;2022-10-03T08:10:26;16.30;99.90
22192;DHT22;11261;52.456;10.850;2022-10-03T08:13:24;17.00;99.90
22192;DHT22;11261;52.456;10.850;2022-10-03T08:16:04;16.60;99.90
22192;DHT22;11261;52.456;10.850;2022-10-03T08:19:18;17.10;99.90
22192;DHT22;11261;52.456;10.850;2022-10-03T08:21:57;17.40;99.90
22192;DHT22;11261;52.456;10.850;2022-10-03T08:27:42;17.30;99.90
22192;DHT22;11261;52.456;10.850;2022-10-03T08:30:33;18.30;99.90
22192;DHT22;11261;52.456;10.850;2022-10-03T08:33:24;18.10;99.90
22192;DHT22;11261;52.456;10.850;2022-10-03T08:36:32;18.30;99.90
22192;DHT22;11261;52.456;10.850;2022-10-03T08:39:23;18.50;99.90
22192;DHT22;11261;52.456;10.850;2022-10-03T08:42:17;19.00;99.90
22192;DHT22;11261;52.456;10.850;2022-10-03T08:44:59;18.80;99.90
22192;DHT22;11261;52.456;10.850;2022-10-03T08:50:51;18.30;99.90
22192;DHT22;11261;52.456;10.850;2022-10-03T08:53:46;18.10;99.90
22192;DHT22;11261;52.456;10.850;2022-10-03T08:56:23;19.20;99.90
22192;DHT22;11261;52.456;10.850;2022-10-03T08:59:40;20.00;99.90
22192;DHT22;11261;52.456;10.850;2022-10-03T09:02:47;19.70;99.90
22192;DHT22;11261;52.456;10.850;2022-10-03T09:09:14;19.90;99.90
22192;DHT22;11261;52.456;10.850;2022-10-03T09:18:29;19.60;99.90
22192;DHT22;11261;52.456;10.850;2022-10-03T09:21:28;19.60;99.90
22192;DHT22;11261;52.456;10.850;2022-10-03T09:24:42;19.30;99.90
22192;DHT22;11261;52.456;10.850;2022-10-03T09:27:27;19.90;99.90
22192;DHT22;11261;52.456;10.850;2022-10-03T09:30:20;19.80;99.90
22192;DHT22;11261;52.456;10.850;2022-10-03T09:39:42;18.50;99.90
22192;DHT22;11261;52.456;10.850;2022-10-03T09:42:54;18.50;99.90
22192;DHT22;11261;52.456;10.850;2022-10-03T09:49:04;17.90;99.90
22192;DHT22;11261;52.456;10.850;2022-10-03T09:51:46;17.90;99.90
22192;DHT22;11261;52.456;10.850;2022-10-03T10:00:28;17.50;99.90
22192;DHT22;11261;52.456;10.850;2022-10-03T10:03:13;17.60;99.90
22192;DHT22;11261;52.456;10.850;2022-10-03T10:06:01;17.50;99.90
22192;DHT22;11261;52.456;10.850;2022-10-03T10:08:45;17.30;99.90
22192;DHT22;11261;52.456;10.850;2022-10-03T10:11:31;17.20;99.90
22192;DHT22;11261;52.456;10.850;2022-10-03T10:14:24;17.40;99.90
22192;DHT22;11261;52.456;10.850;2022-10-03T10:26:31;17.60;99.90
22192;DHT22;11261;52.456;10.850;2022-10-03T10:29:31;17.70;99.90
22192;DHT22;11261;52.456;10.850;2022-10-03T10:38:29;17.70;99.90
22192;DHT22;11261;52.456;10.850;2022-10-03T10:47:54;19.30;99.90
22192;DHT22;11261;52.456;10.850;2022-10-03T10:57:03;19.00;99.90
22192;DHT22;11261;52.456;10.850;2022-10-03T11:09:23;18.60;99.90
22192;DHT22;11261;52.456;10.850;2022-10-03T11:15:42;18.40;99.90
22192;DHT22;11261;52.456;10.850;2022-10-03T11:34:56;19.50;99.90
22192;DHT22;11261;52.456;10.850;2022-10-03T11:37:38;19.50;99.90
22192;DHT22;11261;52.456;10.850;2022-10-03T11:40:28;19.80;99.90
22192;DHT22;11261;52.456;10.850;2022-10-03T11:43:21;19.40;99.90
22192;DHT22;11261;52.456;10.850;2022-10-03T11:46:13;19.10;99.90
22192;DHT22;11261;52.456;10.850;2022-10-03T11:48:51;18.70;99.90
22192;DHT22;11261;52.456;10.850;2022-10-03T11:51:38;19.00;99.90
22192;DHT22;11261;52.456;10.850;2022-10-03T11:54:18;18.70;99.90
22192;DHT22;11261;52.456;10.850;2022-10-03T11:57:00;18.70;99.90
22192;DHT22;11261;52.456;10.850;2022-10-03T11:59:48;18.40;99.90
22192;DHT22;11261;52.456;10.850;2022-10-03T12:05:25;18.40;99.90
22192;DHT22;11261;52.456;10.850;2022-10-03T12:08:10;18.10;99.90
22192;DHT22;11261;52.456;10.850;2022-10-03T12:11:05;17.70;99.90
22192;DHT22;11261;52.456;10.850;2022-10-03T12:13:57;18.00;99.90
22192;DHT22;11261;52.456;10.850;2022-10-03T12:16:49;18.20;99.90
22192;DHT22;11261;52.456;10.850;2022-10-03T12:19:27;18.70;99.90
22192;DHT22;11261;52.456;10.850;2022-10-03T12:22:05;18.20;99.90
22192;DHT22;11261;52.456;10.850;2022-10-03T12:24:40;18.30;99.90
22192;DHT22;11261;52.456;10.850;2022-10-03T12:27:16;18.30;99.90
22192;DHT22;11261;52.456;10.850;2022-10-03T12:29:54;18.40;99.90
22192;DHT22;11261;52.456;10.850;2022-10-03T12:32:31;18.70;99.90
22192;DHT22;11261;52.456;10.850;2022-10-03T12:35:20;18.70;99.90
22192;DHT22;11261;52.456;10.850;2022-10-03T12:38:05;18.60;99.90
22192;DHT22;11261;52.456;10.850;2022-10-03T12:40:40;19.00;99.90
22192;DHT22;11261;52.456;10.850;2022-10-03T12:43:24;18.90;99.90
22192;DHT22;11261;52.456;10.850;2022-10-03T12:45:59;18.90;99.90
22192;DHT22;11261;52.456;10.850;2022-10-03T12:48:43;18.80;99.90
22192;DHT22;11261;52.456;10.850;2022-10-03T12:51:20;19.00;99.90
22192;DHT22;11261;52.456;10.850;2022-10-03T12:54:03;18.90;99.90
22192;DHT22;11261;52.456;10.850;2022-10-03T12:56:43;19.10;99.90
22192;DHT22;11261;52.456;10.850;2022-10-03T12:59:31;19.10;99.90
22192;DHT22;11261;52.456;10.850;2022-10-03T13:02:23;19.10;99.90
22192;DHT22;11261;52.456;10.850;2022-10-03T13:08:05;18.70;99.90
22192;DHT22;11261;52.456;10.850;2022-10-03T13:10:41;18.70;99.90
22192;DHT22;11261;52.456;10.850;2022-10-03T13:13:21;18.60;99.90
22192;DHT22;11261;52.456;10.850;2022-10-03T13:18:51;17.90;99.90
22192;DHT22;11261;52.456;10.850;2022-10-03T13:21:26;17.70;99.90
22192;DHT22;11261;52.456;10.850;2022-10-03T13:24:22;17.90;99.90
22192;DHT22;11261;52.456;10.850;2022-10-03T13:27:04;17.50;99.90
22192;DHT22;11261;52.456;10.850;2022-10-03T13:29:39;17.70;99.90
22192;DHT22;11261;52.456;10.850;2022-10-03T13:32:12;17.40;99.90
22192;DHT22;11261;52.456;10.850;2022-10-03T13:34:53;17.20;99.90
22192;DHT22;11261;52.456;10.850;2022-10-03T13:37:28;16.90;99.90
22192;DHT22;11261;52.456;10.850;2022-10-03T13:40:04;17.20;99.90
22192;DHT22;11261;52.456;10.850;2022-10-03T13:42:37;16.80;99.90
22192;DHT22;11261;52.456;10.850;2022-10-03T13:45:14;16.90;99.90
22192;DHT22;11261;52.456;10.850;2022-10-03T13:47:45;16.80;99.90
22192;DHT22;11261;52.456;10.850;2022-10-03T13:50:17;17.20;99.90
22192;DHT22;11261;52.456;10.850;2022-10-03T13:52:51;17.40;99.90
22192;DHT22;11261;52.456;10.850;2022-10-03T13:55:27;17.60;99.90
22192;DHT22;11261;52.456;10.850;2022-10-03T14:01:22;17.70;99.90
22192;DHT22;11261;52.456;10.850;2022-10-03T14:07:05;17.50;99.90
22192;DHT22;11261;52.456;10.850;2022-10-03T14:09:45;17.80;99.90
22192;DHT22;11261;52.456;10.850;2022-10-03T14:12:24;17.70;99.90
22192;DHT22;11261;52.456;10.850;2022-10-03T14:15:28;17.40;99.90
22192;DHT22;11261;52.456;10.850;2022-10-03T14:18:16;17.30;99.90
22192;DHT22;11261;52.456;10.850;2022-10-03T14:21:10;17.50;99.90
22192;DHT22;11261;52.456;10.850;2022-10-03T14:23:47;17.50;99.90
22192;DHT22;11261;52.456;10.850;2022-10-03T14:26:22;17.30;99.90
22192;DHT22;11261;52.456;10.850;2022-10-03T14:28:59;17.10;99.90
22192;DHT22;11261;52.456;10.850;2022-10-03T14:31:34;16.90;99.90
22192;DHT22;11261;52.456;10.850;2022-10-03T14:34:14;16.90;99.90
22192;DHT22;11261;52.456;10.850;2022-10-03T14:36:51;16.60;99.90
22192;DHT22;11261;52.456;10.850;2022-10-03T14:39:30;16.40;99.90
22192;DHT22;11261;52.456;10.850;2022-10-03T14:42:31;16.50;99.90
22192;DHT22;11261;52.456;10.850;2022-10-03T14:45:07;16.70;99.90
22192;DHT22;11261;52.456;10.850;2022-10-03T14:47:38;16.60;99.90
22192;DHT22;11261;52.456;10.850;2022-10-03T14:50:15;16.30;99.90
22192;DHT22;11261;52.456;10.850;2022-10-03T14:52:49;16.40;99.90
22192;DHT22;11261;52.456;10.850;2022-10-03T14:55:22;16.60;99.90
22192;DHT22;11261;52.456;10.850;2022-10-03T14:57:59;16.60;99.90
22192;DHT22;11261;52.456;10.850;2022-10-03T15:00:40;16.60;99.90
22192;DHT22;11261;52.456;10.850;2022-10-03T15:03:26;16.80;99.90
22192;DHT22;11261;52.456;10.850;2022-10-03T15:09:08;16.70;99.90
22192;DHT22;11261;52.456;10.850;2022-10-03T15:11:44;16.50;99.90
22192;DHT22;11261;52.456;10.850;2022-10-03T15:14:14;16.50;99.90
22192;DHT22;11261;52.456;10.850;2022-10-03T15:16:46;16.50;99.90
22192;DHT22;11261;52.456;10.850;2022-10-03T15:19:19;16.50;99.90
22192;DHT22;11261;52.456;10.850;2022-10-03T15:21:51;16.30;99.90
22192;DHT22;11261;52.456;10.850;2022-10-03T15:24:22;16.40;99.90
22192;DHT22;11261;52.456;10.850;2022-10-03T15:26:56;16.40;99.90
22192;DHT22;11261;52.456;10.850;2022-10-03T15:29:25;16.50;99.90
22192;DHT22;11261;52.456;10.850;2022-10-03T15:31:55;16.60;99.90
22192;DHT22;11261;52.456;10.850;2022-10-03T15:34:28;16.50;99.90
22192;DHT22;11261;52.456;10.850;2022-10-03T15:36:59;16.60;99.90
22192;DHT22;11261;52.456;10.850;2022-10-03T15:39:35;16.40;99.90
22192;DHT22;11261;52.456;10.850;2022-10-03T15:42:19;16.40;99.90
22192;DHT22;11261;52.456;10.850;2022-10-03T15:44:51;16.30;99.90
22192;DHT22;11261;52.456;10.850;2022-10-03T15:47:22;16.30;99.90
22192;DHT22;11261;52.456;10.850;2022-10-03T15:49:56;16.40;99.90
22192;DHT22;11261;52.456;10.850;2022-10-03T15:52:34;16.30;99.90
22192;DHT22;11261;52.456;10.850;2022-10-03T15:55:11;16.50;99.90
22192;DHT22;11261;52.456;10.850;2022-10-03T15:57:44;16.30;99.90
22192;DHT22;11261;52.456;10.850;2022-10-03T16:00:21;16.40;99.90
22192;DHT22;11261;52.456;10.850;2022-10-03T16:02:54;16.10;99.90
22192;DHT22;11261;52.456;10.850;2022-10-03T16:05:26;16.10;99.90
22192;DHT22;11261;52.456;10.850;2022-10-03T16:08:00;16.10;99.90
22192;DHT22;11261;52.456;10.850;2022-10-03T16:10:37;16.10;99.90
22192;DHT22;11261;52.456;10.850;2022-10-03T16:13:18;16.10;99.90
22192;DHT22;11261;52.456;10.850;2022-10-03T16:16:17;16.20;99.90
22192;DHT22;11261;52.456;10.850;2022-10-03T16:18:53;16.00;99.90
22192;DHT22;11261;52.456;10.850;2022-10-03T16:21:41;16.00;99.90
22192;DHT22;11261;52.456;10.850;2022-10-03T16:24:24;16.10;99.90
22192;DHT22;11261;52.456;10.850;2022-10-03T16:27:00;16.00;99.90
22192;DHT22;11261;52.456;10.850;2022-10-03T16:29:34;16.10;99.90
22192;DHT22;11261;52.456;10.850;2022-10-03T16:32:06;16.00;99.90
22192;DHT22;11261;52.456;10.850;2022-10-03T16:34:36;15.90;99.90
22192;DHT22;11261;52.456;10.850;2022-10-03T16:37:16;16.00;99.90
22192;DHT22;11261;52.456;10.850;2022-10-03T16:39:54;15.70;99.90
22192;DHT22;11261;52.456;10.850;2022-10-03T16:42:26;15.80;99.90
22192;DHT22;11261;52.456;10.850;2022-10-03T16:44:57;15.90;99.90
22192;DHT22;11261;52.456;10.850;2022-10-03T16:47:32;16.00;99.90
22192;DHT22;11261;52.456;10.850;2022-10-03T16:50:02;15.90;99.90
22192;DHT22;11261;52.456;10.850;2022-10-03T16:52:50;15.90;99.90
22192;DHT22;11261;52.456;10.850;2022-10-03T16:55:25;15.70;99.90
22192;DHT22;11261;52.456;10.850;2022-10-03T16:57:57;15.60;99.90
22192;DHT22;11261;52.456;10.850;2022-10-03T17:00:33;15.70;99.90
22192;DHT22;11261;52.456;10.850;2022-10-03T17:03:15;15.70;99.90
22192;DHT22;11261;52.456;10.850;2022-10-03T17:05:46;15.60;99.90
22192;DHT22;11261;52.456;10.850;2022-10-03T17:08:17;15.60;99.90
22192;DHT22;11261;52.456;10.850;2022-10-03T17:11:11;15.40;99.90
22192;DHT22;11261;52.456;10.850;2022-10-03T17:13:46;15.40;99.90
22192;DHT22;11261;52.456;10.850;2022-10-03T17:16:24;15.60;99.90
22192;DHT22;11261;52.456;10.850;2022-10-03T17:19:10;15.70;99.90
22192;DHT22;11261;52.456;10.850;2022-10-03T17:21:43;15.50;99.90
22192;DHT22;11261;52.456;10.850;2022-10-03T17:24:25;15.40;99.90
22192;DHT22;11261;52.456;10.850;2022-10-03T17:27:00;15.20;99.90
22192;DHT22;11261;52.456;10.850;2022-10-03T17:29:35;15.30;99.90
22192;DHT22;11261;52.456;10.850;2022-10-03T17:32:13;15.20;99.90
22192;DHT22;11261;52.456;10.850;2022-10-03T17:34:51;15.20;99.90
22192;DHT22;11261;52.456;10.850;2022-10-03T17:40:48;15.20;99.90
22192;DHT22;11261;52.456;10.850;2022-10-03T17:43:27;15.20;99.90
22192;DHT22;11261;52.456;10.850;2022-10-03T17:46:02;15.20;99.90
22192;DHT22;11261;52.456;10.850;2022-10-03T17:48:36;15.20;99.90
22192;DHT22;11261;52.456;10.850;2022-10-03T17:51:29;15.30;99.90
22192;DHT22;11261;52.456;10.850;2022-10-03T17:54:01;15.10;99.90
22192;DHT22;11261;52.456;10.850;2022-10-03T17:56:32;15.10;99.90
22192;DHT22;11261;52.456;10.850;2022-10-03T17:59:05;15.20;99.90
22192;DHT22;11261;52.456;10.850;2022-10-03T18:01:37;15.10;99.90
22192;DHT22;11261;52.456;10.850;2022-10-03T18:04:14;15.20;99.90
22192;DHT22;11261;52.456;10.850;2022-10-03T18:06:46;15.10;99.90
22192;DHT22;11261;52.456;10.850;2022-10-03T18:09:32;15.20;99.90
22192;DHT22;11261;52.456;10.850;2022-10-03T18:12:18;15.10;99.90
22192;DHT22;11261;52.456;10.850;2022-10-03T18:15:08;15.00;99.90
22192;DHT22;11261;52.456;10.850;2022-10-03T18:17:54;14.90;99.90
22192;DHT22;11261;52.456;10.850;2022-10-03T18:20:39;14.90;99.90
22192;DHT22;11261;52.456;10.850;2022-10-03T18:23:21;15.00;99.90
22192;DHT22;11261;52.456;10.850;2022-10-03T18:26:24;15.00;99.90
22192;DHT22;11261;52.456;10.850;2022-10-03T18:29:00;15.00;99.90
22192;DHT22;11261;52.456;10.850;2022-10-03T18:31:37;15.00;99.90
22192;DHT22;11261;52.456;10.850;2022-10-03T18:34:08;14.90;99.90
22192;DHT22;11261;52.456;10.850;2022-10-03T18:36:43;14.90;99.90
22192;DHT22;11261;52.456;10.850;2022-10-03T18:39:15;14.90;99.90
22192;DHT22;11261;52.456;10.850;2022-10-03T18:41:46;14.90;99.90
22192;DHT22;11261;52.456;10.850;2022-10-03T18:44:19;14.80;99.90
22192;DHT22;11261;52.456;10.850;2022-10-03T18:46:59;14.80;99.90
22192;DHT22;11261;52.456;10.850;2022-10-03T18:49:31;14.70;99.90
22192;DHT22;11261;52.456;10.850;2022-10-03T18:52:06;14.70;99.90
22192;DHT22;11261;52.456;10.850;2022-10-03T18:54:45;14.60;99.90
22192;DHT22;11261;52.456;10.850;2022-10-03T18:57:21;14.40;99.90
22192;DHT22;11261;52.456;10.850;2022-10-03T18:59:53;14.60;99.90
22192;DHT22;11261;52.456;10.850;2022-10-03T19:02:35;14.60;99.90
22192;DHT22;11261;52.456;10.850;2022-10-03T19:05:10;14.60;99.90
22192;DHT22;11261;52.456;10.850;2022-10-03T19:07:46;14.50;99.90
22192;DHT22;11261;52.456;10.850;2022-10-03T19:10:28;14.50;99.90
22192;DHT22;11261;52.456;10.850;2022-10-03T19:13:02;14.70;99.90
22192;DHT22;11261;52.456;10.850;2022-10-03T19:15:40;14.60;99.90
22192;DHT22;11261;52.456;10.850;2022-10-03T19:18:20;14.70;99.90
22192;DHT22;11261;52.456;10.850;2022-10-03T19:20:54;14.60;99.90
22192;DHT22;11261;52.456;10.850;2022-10-03T19:23:25;14.40;99.90
22192;DHT22;11261;52.456;10.850;2022-10-03T19:25:59;14.40;99.90
22192;DHT22;11261;52.456;10.850;2022-10-03T19:28:30;14.30;99.90
22192;DHT22;11261;52.456;10.850;2022-10-03T19:31:03;14.30;99.90
22192;DHT22;11261;52.456;10.850;2022-10-03T19:33:40;14.30;99.90
22192;DHT22;11261;52.456;10.850;2022-10-03T19:36:14;14.20;99.90
22192;DHT22;11261;52.456;10.850;2022-10-03T19:38:44;14.20;99.90